sensor_id;sensor_type;location;lat;lon;timestamp;P1;durP1;ratioP1;P2;durP2;ratioP2
28760;SDS011;15917;50.014;8.352;2023-02-01T00:01:44;7.53;;;3.47;;
28760;SDS011;15917;50.014;8.352;2023-02-01T00:04:10;6.43;;;2.83;;
28760;SDS011;15917;50.014;8.352;2023-02-01T00:06:36;3.67;;;2.65;;
28760;SDS011;15917;50.014;8.352;2023-02-01T00:09:02;10.07;;;2.90;;
28760;SDS011;15917;50.014;8.352;2023-02-01T00:11:27;9.00;;;3.05;;
28760;SDS011;15917;50.014;8.352;2023-02-01T00:13:53;7.65;;;3.38;;
28760;SDS011;15917;50.014;8.352;2023-02-01T00:16:20;6.13;;;3.53;;
28760;SDS011;15917;50.014;8.352;2023-02-01T00:18:48;5.68;;;2.95;;
28760;SDS011;15917;50.014;8.352;2023-02-01T00:21:16;11.48;;;3.28;;
28760;SDS011;15917;50.014;8.352;2023-02-01T00:23:44;7.70;;;3.55;;
28760;SDS011;15917;50.014;8.352;2023-02-01T00:26:17;6.13;;;3.60;;
28760;SDS011;15917;50.014;8.352;2023-02-01T00:28:45;8.88;;;3.85;;
28760;SDS011;15917;50.014;8.352;2023-02-01T00:31:11;6.18;;;3.60;;
28760;SDS011;15917;50.014;8.352;2023-02-01T00:33:36;6.45;;;4.10;;
28760;SDS011;15917;50.014;8.352;2023-02-01T00:36:03;8.18;;;4.22;;
28760;SDS011;15917;50.014;8.352;2023-02-01T00:38:31;7.68;;;4.05;;
28760;SDS011;15917;50.014;8.352;2023-02-01T00:41:01;12.18;;;5.13;;
28760;SDS011;15917;50.014;8.352;2023-02-01T00:43:30;7.60;;;4.50;;
28760;SDS011;15917;50.014;8.352;2023-02-01T00:45:57;13.57;;;4.95;;
28760;SDS011;15917;50.014;8.352;2023-02-01T00:48:23;10.93;;;4.75;;
28760;SDS011;15917;50.014;8.352;2023-02-01T00:50:49;9.30;;;4.85;;
28760;SDS011;15917;50.014;8.352;2023-02-01T00:53:15;7.47;;;4.70;;
28760;SDS011;15917;50.014;8.352;2023-02-01T00:55:44;8.60;;;4.30;;
28760;SDS011;15917;50.014;8.352;2023-02-01T00:58:10;10.43;;;4.90;;
28760;SDS011;15917;50.014;8.352;2023-02-01T01:00:36;16.70;;;4.95;;
28760;SDS011;15917;50.014;8.352;2023-02-01T01:03:02;8.00;;;4.35;;
28760;SDS011;15917;50.014;8.352;2023-02-01T01:05:46;17.40;;;4.45;;
28760;SDS011;15917;50.014;8.352;2023-02-01T01:08:13;10.40;;;5.25;;
28760;SDS011;15917;50.014;8.352;2023-02-01T01:10:39;10.65;;;5.22;;
28760;SDS011;15917;50.014;8.352;2023-02-01T01:13:05;12.73;;;5.68;;
28760;SDS011;15917;50.014;8.352;2023-02-01T01:15:35;8.63;;;5.55;;
28760;SDS011;15917;50.014;8.352;2023-02-01T01:18:01;14.70;;;4.95;;
28760;SDS011;15917;50.014;8.352;2023-02-01T01:20:27;11.30;;;5.55;;
28760;SDS011;15917;50.014;8.352;2023-02-01T01:22:53;11.43;;;4.80;;
28760;SDS011;15917;50.014;8.352;2023-02-01T01:25:18;10.82;;;5.28;;
28760;SDS011;15917;50.014;8.352;2023-02-01T01:27:44;12.63;;;5.55;;
28760;SDS011;15917;50.014;8.352;2023-02-01T01:30:10;7.20;;;4.40;;
28760;SDS011;15917;50.014;8.352;2023-02-01T01:32:36;14.63;;;4.95;;
28760;SDS011;15917;50.014;8.352;2023-02-01T01:35:02;11.20;;;5.65;;
28760;SDS011;15917;50.014;8.352;2023-02-01T01:37:27;9.13;;;5.30;;
28760;SDS011;15917;50.014;8.352;2023-02-01T01:39:53;14.27;;;5.07;;
28760;SDS011;15917;50.014;8.352;2023-02-01T01:42:20;11.07;;;5.07;;
28760;SDS011;15917;50.014;8.352;2023-02-01T01:45:00;9.82;;;5.22;;
28760;SDS011;15917;50.014;8.352;2023-02-01T01:47:39;11.15;;;5.78;;
28760;SDS011;15917;50.014;8.352;2023-02-01T01:50:09;10.02;;;4.95;;
28760;SDS011;15917;50.014;8.352;2023-02-01T01:52:38;14.05;;;5.65;;
28760;SDS011;15917;50.014;8.352;2023-02-01T01:55:05;14.85;;;5.75;;
28760;SDS011;15917;50.014;8.352;2023-02-01T01:57:37;10.95;;;5.22;;
28760;SDS011;15917;50.014;8.352;2023-02-01T02:00:09;14.40;;;6.20;;
28760;SDS011;15917;50.014;8.352;2023-02-01T02:02:40;13.07;;;6.03;;
28760;SDS011;15917;50.014;8.352;2023-02-01T02:05:08;15.20;;;6.25;;
28760;SDS011;15917;50.014;8.352;2023-02-01T02:07:36;15.98;;;6.40;;
28760;SDS011;15917;50.014;8.352;2023-02-01T02:10:05;9.40;;;5.90;;
28760;SDS011;15917;50.014;8.352;2023-02-01T02:12:39;14.15;;;6.15;;
28760;SDS011;15917;50.014;8.352;2023-02-01T02:15:07;17.63;;;6.85;;
28760;SDS011;15917;50.014;8.352;2023-02-01T02:34:44;14.52;;;7.70;;
28760;SDS011;15917;50.014;8.352;2023-02-01T02:45:57;24.92;;;9.18;;
28760;SDS011;15917;50.014;8.352;2023-02-01T02:49:02;14.82;;;7.55;;
28760;SDS011;15917;50.014;8.352;2023-02-01T02:51:37;23.63;;;7.80;;
28760;SDS011;15917;50.014;8.352;2023-02-01T02:54:36;15.77;;;6.28;;
28760;SDS011;15917;50.014;8.352;2023-02-01T02:57:23;17.98;;;7.80;;
28760;SDS011;15917;50.014;8.352;2023-02-01T03:00:28;16.58;;;7.88;;
28760;SDS011;15917;50.014;8.352;2023-02-01T03:03:16;19.65;;;7.45;;
28760;SDS011;15917;50.014;8.352;2023-02-01T03:06:00;15.65;;;7.75;;
28760;SDS011;15917;50.014;8.352;2023-02-01T03:08:30;21.35;;;8.32;;
28760;SDS011;15917;50.014;8.352;2023-02-01T03:11:04;18.05;;;6.85;;
28760;SDS011;15917;50.014;8.352;2023-02-01T03:13:50;16.63;;;7.20;;
28760;SDS011;15917;50.014;8.352;2023-02-01T03:21:41;12.35;;;6.97;;
28760;SDS011;15917;50.014;8.352;2023-02-01T03:24:16;12.98;;;7.00;;
28760;SDS011;15917;50.014;8.352;2023-02-01T03:27:01;18.52;;;6.55;;
28760;SDS011;15917;50.014;8.352;2023-02-01T03:32:14;10.95;;;6.15;;
28760;SDS011;15917;50.014;8.352;2023-02-01T03:34:40;14.82;;;6.60;;
28760;SDS011;15917;50.014;8.352;2023-02-01T03:37:08;15.30;;;7.30;;
28760;SDS011;15917;50.014;8.352;2023-02-01T03:42:28;13.40;;;6.38;;
28760;SDS011;15917;50.014;8.352;2023-02-01T03:47:44;15.20;;;6.50;;
28760;SDS011;15917;50.014;8.352;2023-02-01T03:50:18;12.45;;;7.28;;
28760;SDS011;15917;50.014;8.352;2023-02-01T03:52:55;15.20;;;6.18;;
28760;SDS011;15917;50.014;8.352;2023-02-01T03:55:24;9.95;;;5.43;;
28760;SDS011;15917;50.014;8.352;2023-02-01T03:58:00;14.25;;;7.10;;
28760;SDS011;15917;50.014;8.352;2023-02-01T04:00:38;10.65;;;5.75;;
28760;SDS011;15917;50.014;8.352;2023-02-01T04:03:04;11.65;;;4.80;;
28760;SDS011;15917;50.014;8.352;2023-02-01T04:05:31;11.90;;;5.78;;
28760;SDS011;15917;50.014;8.352;2023-02-01T04:08:01;10.73;;;4.85;;
28760;SDS011;15917;50.014;8.352;2023-02-01T04:10:27;9.27;;;5.32;;
28760;SDS011;15917;50.014;8.352;2023-02-01T04:12:53;14.45;;;4.63;;
28760;SDS011;15917;50.014;8.352;2023-02-01T04:15:19;13.98;;;5.10;;
28760;SDS011;15917;50.014;8.352;2023-02-01T04:17:45;17.00;;;5.25;;
28760;SDS011;15917;50.014;8.352;2023-02-01T04:20:10;11.50;;;4.95;;
28760;SDS011;15917;50.014;8.352;2023-02-01T04:22:36;8.23;;;4.55;;
28760;SDS011;15917;50.014;8.352;2023-02-01T04:25:02;12.00;;;4.80;;
28760;SDS011;15917;50.014;8.352;2023-02-01T04:27:28;17.00;;;4.63;;
28760;SDS011;15917;50.014;8.352;2023-02-01T04:29:53;12.02;;;4.43;;
28760;SDS011;15917;50.014;8.352;2023-02-01T04:32:19;12.13;;;4.70;;
28760;SDS011;15917;50.014;8.352;2023-02-01T04:34:45;11.90;;;4.20;;
28760;SDS011;15917;50.014;8.352;2023-02-01T04:37:11;11.75;;;4.35;;
28760;SDS011;15917;50.014;8.352;2023-02-01T04:39:36;11.38;;;4.40;;
28760;SDS011;15917;50.014;8.352;2023-02-01T04:42:02;11.73;;;4.82;;
28760;SDS011;15917;50.014;8.352;2023-02-01T04:44:28;12.43;;;4.22;;
28760;SDS011;15917;50.014;8.352;2023-02-01T04:46:54;8.85;;;4.50;;
28760;SDS011;15917;50.014;8.352;2023-02-01T04:49:20;11.55;;;4.20;;
28760;SDS011;15917;50.014;8.352;2023-02-01T04:51:46;15.23;;;4.00;;
28760;SDS011;15917;50.014;8.352;2023-02-01T04:54:12;13.25;;;4.53;;
28760;SDS011;15917;50.014;8.352;2023-02-01T04:56:38;18.50;;;4.68;;
28760;SDS011;15917;50.014;8.352;2023-02-01T04:59:04;11.30;;;4.15;;
28760;SDS011;15917;50.014;8.352;2023-02-01T05:01:29;19.08;;;3.78;;
28760;SDS011;15917;50.014;8.352;2023-02-01T05:03:55;13.48;;;4.18;;
28760;SDS011;15917;50.014;8.352;2023-02-01T05:06:21;17.48;;;3.63;;
28760;SDS011;15917;50.014;8.352;2023-02-01T05:08:47;14.90;;;3.78;;
28760;SDS011;15917;50.014;8.352;2023-02-01T05:11:13;14.85;;;4.13;;
28760;SDS011;15917;50.014;8.352;2023-02-01T05:14:00;15.05;;;3.50;;
28760;SDS011;15917;50.014;8.352;2023-02-01T05:16:26;18.42;;;3.75;;
28760;SDS011;15917;50.014;8.352;2023-02-01T05:18:52;15.20;;;4.25;;
28760;SDS011;15917;50.014;8.352;2023-02-01T05:21:18;8.77;;;3.47;;
28760;SDS011;15917;50.014;8.352;2023-02-01T05:23:43;15.90;;;4.20;;
28760;SDS011;15917;50.014;8.352;2023-02-01T05:26:28;22.42;;;3.90;;
28760;SDS011;15917;50.014;8.352;2023-02-01T05:28:53;9.65;;;3.13;;
28760;SDS011;15917;50.014;8.352;2023-02-01T05:31:19;13.93;;;3.38;;
28760;SDS011;15917;50.014;8.352;2023-02-01T05:33:45;12.73;;;3.53;;
28760;SDS011;15917;50.014;8.352;2023-02-01T05:36:11;24.42;;;4.28;;
28760;SDS011;15917;50.014;8.352;2023-02-01T05:38:37;16.73;;;3.50;;
28760;SDS011;15917;50.014;8.352;2023-02-01T05:41:02;22.38;;;3.30;;
28760;SDS011;15917;50.014;8.352;2023-02-01T05:43:28;20.08;;;3.70;;
28760;SDS011;15917;50.014;8.352;2023-02-01T05:45:54;15.02;;;3.40;;
28760;SDS011;15917;50.014;8.352;2023-02-01T05:48:19;18.95;;;4.10;;
28760;SDS011;15917;50.014;8.352;2023-02-01T05:50:45;21.77;;;3.70;;
28760;SDS011;15917;50.014;8.352;2023-02-01T05:53:11;18.77;;;3.85;;
28760;SDS011;15917;50.014;8.352;2023-02-01T05:55:36;16.23;;;3.78;;
28760;SDS011;15917;50.014;8.352;2023-02-01T05:58:03;23.23;;;3.80;;
28760;SDS011;15917;50.014;8.352;2023-02-01T06:00:28;24.30;;;4.32;;
28760;SDS011;15917;50.014;8.352;2023-02-01T06:02:54;26.40;;;3.97;;
28760;SDS011;15917;50.014;8.352;2023-02-01T06:05:20;17.23;;;3.33;;
28760;SDS011;15917;50.014;8.352;2023-02-01T06:07:45;14.45;;;3.83;;
28760;SDS011;15917;50.014;8.352;2023-02-01T06:10:11;12.85;;;3.83;;
28760;SDS011;15917;50.014;8.352;2023-02-01T06:12:37;22.58;;;3.20;;
28760;SDS011;15917;50.014;8.352;2023-02-01T06:15:03;28.10;;;4.32;;
28760;SDS011;15917;50.014;8.352;2023-02-01T06:17:29;14.20;;;3.10;;
28760;SDS011;15917;50.014;8.352;2023-02-01T06:19:54;12.93;;;2.78;;
28760;SDS011;15917;50.014;8.352;2023-02-01T06:22:20;17.42;;;3.10;;
28760;SDS011;15917;50.014;8.352;2023-02-01T06:24:47;20.70;;;2.80;;
28760;SDS011;15917;50.014;8.352;2023-02-01T06:27:13;22.02;;;3.17;;
28760;SDS011;15917;50.014;8.352;2023-02-01T06:29:40;23.65;;;3.53;;
28760;SDS011;15917;50.014;8.352;2023-02-01T06:32:06;15.70;;;2.65;;
28760;SDS011;15917;50.014;8.352;2023-02-01T06:34:31;19.33;;;3.15;;
28760;SDS011;15917;50.014;8.352;2023-02-01T06:36:57;13.30;;;2.75;;
28760;SDS011;15917;50.014;8.352;2023-02-01T06:39:22;21.83;;;3.35;;
28760;SDS011;15917;50.014;8.352;2023-02-01T06:41:48;12.20;;;2.55;;
28760;SDS011;15917;50.014;8.352;2023-02-01T06:44:14;13.85;;;3.00;;
28760;SDS011;15917;50.014;8.352;2023-02-01T06:46:40;13.68;;;3.38;;
28760;SDS011;15917;50.014;8.352;2023-02-01T06:49:06;24.80;;;4.30;;
28760;SDS011;15917;50.014;8.352;2023-02-01T06:51:33;17.45;;;3.38;;
28760;SDS011;15917;50.014;8.352;2023-02-01T06:53:59;13.50;;;2.55;;
28760;SDS011;15917;50.014;8.352;2023-02-01T06:56:25;11.27;;;2.97;;
28760;SDS011;15917;50.014;8.352;2023-02-01T06:58:51;12.27;;;3.35;;
28760;SDS011;15917;50.014;8.352;2023-02-01T07:01:17;18.83;;;4.03;;
28760;SDS011;15917;50.014;8.352;2023-02-01T07:03:47;15.50;;;2.88;;
28760;SDS011;15917;50.014;8.352;2023-02-01T07:06:14;10.32;;;2.72;;
28760;SDS011;15917;50.014;8.352;2023-02-01T07:08:40;17.00;;;3.97;;
28760;SDS011;15917;50.014;8.352;2023-02-01T07:11:07;11.75;;;2.60;;
28760;SDS011;15917;50.014;8.352;2023-02-01T07:13:35;10.18;;;2.67;;
28760;SDS011;15917;50.014;8.352;2023-02-01T07:16:02;21.02;;;3.25;;
28760;SDS011;15917;50.014;8.352;2023-02-01T07:18:29;11.95;;;3.00;;
28760;SDS011;15917;50.014;8.352;2023-02-01T07:20:55;17.35;;;3.00;;
28760;SDS011;15917;50.014;8.352;2023-02-01T07:23:22;18.73;;;2.95;;
28760;SDS011;15917;50.014;8.352;2023-02-01T07:25:47;14.45;;;2.78;;
28760;SDS011;15917;50.014;8.352;2023-02-01T07:28:13;14.73;;;2.25;;
28760;SDS011;15917;50.014;8.352;2023-02-01T07:30:39;8.18;;;2.50;;
28760;SDS011;15917;50.014;8.352;2023-02-01T07:33:06;29.60;;;2.40;;
28760;SDS011;15917;50.014;8.352;2023-02-01T07:35:32;14.10;;;3.20;;
28760;SDS011;15917;50.014;8.352;2023-02-01T07:37:58;19.23;;;4.45;;
28760;SDS011;15917;50.014;8.352;2023-02-01T07:40:23;16.05;;;2.75;;
28760;SDS011;15917;50.014;8.352;2023-02-01T07:42:54;20.90;;;3.28;;
28760;SDS011;15917;50.014;8.352;2023-02-01T07:45:20;15.30;;;3.70;;
28760;SDS011;15917;50.014;8.352;2023-02-01T07:47:46;17.85;;;2.67;;
28760;SDS011;15917;50.014;8.352;2023-02-01T07:50:12;18.77;;;3.08;;
28760;SDS011;15917;50.014;8.352;2023-02-01T07:52:38;21.55;;;3.15;;
28760;SDS011;15917;50.014;8.352;2023-02-01T07:55:05;11.77;;;2.38;;
28760;SDS011;15917;50.014;8.352;2023-02-01T07:57:31;19.75;;;3.05;;
28760;SDS011;15917;50.014;8.352;2023-02-01T07:59:57;14.25;;;2.83;;
28760;SDS011;15917;50.014;8.352;2023-02-01T08:02:41;15.13;;;2.42;;
28760;SDS011;15917;50.014;8.352;2023-02-01T08:05:07;18.15;;;2.60;;
28760;SDS011;15917;50.014;8.352;2023-02-01T08:07:33;18.23;;;3.00;;
28760;SDS011;15917;50.014;8.352;2023-02-01T08:09:58;14.02;;;2.75;;
28760;SDS011;15917;50.014;8.352;2023-02-01T08:12:25;16.95;;;2.70;;
28760;SDS011;15917;50.014;8.352;2023-02-01T08:14:52;19.10;;;2.80;;
28760;SDS011;15917;50.014;8.352;2023-02-01T08:17:18;9.55;;;3.38;;
28760;SDS011;15917;50.014;8.352;2023-02-01T08:19:44;18.33;;;3.60;;
28760;SDS011;15917;50.014;8.352;2023-02-01T08:22:10;12.65;;;2.22;;
28760;SDS011;15917;50.014;8.352;2023-02-01T08:24:35;15.55;;;2.90;;
28760;SDS011;15917;50.014;8.352;2023-02-01T08:27:04;10.10;;;2.53;;
28760;SDS011;15917;50.014;8.352;2023-02-01T08:29:30;18.73;;;2.95;;
28760;SDS011;15917;50.014;8.352;2023-02-01T08:31:56;20.27;;;2.65;;
28760;SDS011;15917;50.014;8.352;2023-02-01T08:34:22;15.75;;;3.00;;
28760;SDS011;15917;50.014;8.352;2023-02-01T08:36:47;25.80;;;3.70;;
28760;SDS011;15917;50.014;8.352;2023-02-01T08:39:13;15.77;;;2.35;;
28760;SDS011;15917;50.014;8.352;2023-02-01T08:41:39;21.52;;;3.30;;
28760;SDS011;15917;50.014;8.352;2023-02-01T08:44:07;21.70;;;2.90;;
28760;SDS011;15917;50.014;8.352;2023-02-01T08:46:32;14.02;;;2.35;;
28760;SDS011;15917;50.014;8.352;2023-02-01T08:48:58;10.38;;;2.45;;
28760;SDS011;15917;50.014;8.352;2023-02-01T08:51:24;14.65;;;2.72;;
28760;SDS011;15917;50.014;8.352;2023-02-01T08:53:49;14.73;;;2.53;;
28760;SDS011;15917;50.014;8.352;2023-02-01T08:56:16;18.67;;;2.58;;
28760;SDS011;15917;50.014;8.352;2023-02-01T08:58:42;10.90;;;2.47;;
28760;SDS011;15917;50.014;8.352;2023-02-01T09:01:10;11.25;;;2.70;;
28760;SDS011;15917;50.014;8.352;2023-02-01T09:03:38;22.20;;;3.60;;
28760;SDS011;15917;50.014;8.352;2023-02-01T09:06:04;12.52;;;2.78;;
28760;SDS011;15917;50.014;8.352;2023-02-01T09:11:01;15.07;;;2.72;;
28760;SDS011;15917;50.014;8.352;2023-02-01T09:13:28;17.30;;;2.92;;
28760;SDS011;15917;50.014;8.352;2023-02-01T09:15:54;14.77;;;2.60;;
28760;SDS011;15917;50.014;8.352;2023-02-01T09:18:20;21.50;;;2.58;;
28760;SDS011;15917;50.014;8.352;2023-02-01T09:20:45;11.88;;;2.17;;
28760;SDS011;15917;50.014;8.352;2023-02-01T09:23:11;17.13;;;3.22;;
28760;SDS011;15917;50.014;8.352;2023-02-01T09:25:37;16.65;;;2.90;;
28760;SDS011;15917;50.014;8.352;2023-02-01T09:28:03;17.92;;;2.90;;
28760;SDS011;15917;50.014;8.352;2023-02-01T09:30:31;14.43;;;2.47;;
28760;SDS011;15917;50.014;8.352;2023-02-01T09:32:58;15.20;;;2.70;;
28760;SDS011;15917;50.014;8.352;2023-02-01T09:35:24;17.15;;;2.45;;
28760;SDS011;15917;50.014;8.352;2023-02-01T09:37:49;17.10;;;2.65;;
28760;SDS011;15917;50.014;8.352;2023-02-01T09:40:17;16.90;;;2.38;;
28760;SDS011;15917;50.014;8.352;2023-02-01T09:42:59;24.27;;;2.88;;
28760;SDS011;15917;50.014;8.352;2023-02-01T09:45:35;14.30;;;2.58;;
28760;SDS011;15917;50.014;8.352;2023-02-01T09:48:08;13.65;;;2.03;;
28760;SDS011;15917;50.014;8.352;2023-02-01T09:50:38;17.10;;;2.60;;
28760;SDS011;15917;50.014;8.352;2023-02-01T09:53:10;15.15;;;2.38;;
28760;SDS011;15917;50.014;8.352;2023-02-01T09:55:43;21.33;;;2.80;;
28760;SDS011;15917;50.014;8.352;2023-02-01T10:01:15;20.45;;;2.65;;
28760;SDS011;15917;50.014;8.352;2023-02-01T10:03:47;13.90;;;2.47;;
28760;SDS011;15917;50.014;8.352;2023-02-01T10:06:18;12.00;;;2.78;;
28760;SDS011;15917;50.014;8.352;2023-02-01T10:14:26;26.63;;;2.73;;
28760;SDS011;15917;50.014;8.352;2023-02-01T10:17:08;19.42;;;2.95;;
28760;SDS011;15917;50.014;8.352;2023-02-01T10:22:55;16.25;;;3.28;;
28760;SDS011;15917;50.014;8.352;2023-02-01T10:25:44;19.83;;;2.88;;
28760;SDS011;15917;50.014;8.352;2023-02-01T10:28:18;12.95;;;2.55;;
28760;SDS011;15917;50.014;8.352;2023-02-01T10:33:19;18.75;;;2.67;;
28760;SDS011;15917;50.014;8.352;2023-02-01T10:36:41;18.88;;;2.50;;
28760;SDS011;15917;50.014;8.352;2023-02-01T10:38:47;12.57;;;2.65;;
28760;SDS011;15917;50.014;8.352;2023-02-01T10:41:17;13.52;;;2.65;;
28760;SDS011;15917;50.014;8.352;2023-02-01T10:43:47;10.85;;;2.33;;
28760;SDS011;15917;50.014;8.352;2023-02-01T10:46:17;16.42;;;2.92;;
28760;SDS011;15917;50.014;8.352;2023-02-01T10:48:42;11.90;;;2.72;;
28760;SDS011;15917;50.014;8.352;2023-02-01T10:51:16;16.33;;;2.78;;
28760;SDS011;15917;50.014;8.352;2023-02-01T10:54:05;17.15;;;2.42;;
28760;SDS011;15917;50.014;8.352;2023-02-01T10:59:14;13.45;;;2.22;;
28760;SDS011;15917;50.014;8.352;2023-02-01T11:01:43;11.70;;;2.13;;
28760;SDS011;15917;50.014;8.352;2023-02-01T11:04:21;11.10;;;2.67;;
28760;SDS011;15917;50.014;8.352;2023-02-01T11:07:04;19.42;;;2.70;;
28760;SDS011;15917;50.014;8.352;2023-02-01T11:09:50;15.10;;;2.65;;
28760;SDS011;15917;50.014;8.352;2023-02-01T11:17:39;18.55;;;2.65;;
28760;SDS011;15917;50.014;8.352;2023-02-01T11:20:17;17.63;;;3.75;;
28760;SDS011;15917;50.014;8.352;2023-02-01T11:22:45;23.70;;;3.50;;
28760;SDS011;15917;50.014;8.352;2023-02-01T11:25:18;11.90;;;2.35;;
28760;SDS011;15917;50.014;8.352;2023-02-01T11:27:44;12.57;;;2.35;;
28760;SDS011;15917;50.014;8.352;2023-02-01T11:30:13;18.38;;;2.60;;
28760;SDS011;15917;50.014;8.352;2023-02-01T11:32:42;19.15;;;3.17;;
28760;SDS011;15917;50.014;8.352;2023-02-01T11:35:11;20.33;;;3.07;;
28760;SDS011;15917;50.014;8.352;2023-02-01T11:37:42;18.55;;;2.90;;
28760;SDS011;15917;50.014;8.352;2023-02-01T11:43:11;25.80;;;2.80;;
28760;SDS011;15917;50.014;8.352;2023-02-01T11:45:38;20.52;;;2.88;;
28760;SDS011;15917;50.014;8.352;2023-02-01T11:48:08;24.15;;;2.97;;
28760;SDS011;15917;50.014;8.352;2023-02-01T11:50:44;14.35;;;2.95;;
28760;SDS011;15917;50.014;8.352;2023-02-01T11:59:18;19.33;;;3.00;;
28760;SDS011;15917;50.014;8.352;2023-02-01T12:05:07;24.33;;;3.00;;
28760;SDS011;15917;50.014;8.352;2023-02-01T12:10:23;21.15;;;3.35;;
28760;SDS011;15917;50.014;8.352;2023-02-01T12:18:19;20.00;;;3.58;;
28760;SDS011;15917;50.014;8.352;2023-02-01T12:26:47;18.77;;;3.10;;
28760;SDS011;15917;50.014;8.352;2023-02-01T12:29:27;22.00;;;2.83;;
28760;SDS011;15917;50.014;8.352;2023-02-01T12:37:40;17.90;;;2.60;;
28760;SDS011;15917;50.014;8.352;2023-02-01T12:40:34;15.27;;;3.50;;
28760;SDS011;15917;50.014;8.352;2023-02-01T12:43:11;18.95;;;2.95;;
28760;SDS011;15917;50.014;8.352;2023-02-01T12:45:52;16.23;;;3.33;;
28760;SDS011;15917;50.014;8.352;2023-02-01T12:50:57;15.07;;;2.53;;
28760;SDS011;15917;50.014;8.352;2023-02-01T12:53:35;15.63;;;2.83;;
28760;SDS011;15917;50.014;8.352;2023-02-01T12:56:28;17.83;;;2.85;;
28760;SDS011;15917;50.014;8.352;2023-02-01T12:58:59;17.83;;;2.85;;
28760;SDS011;15917;50.014;8.352;2023-02-01T13:01:37;14.93;;;2.42;;
28760;SDS011;15917;50.014;8.352;2023-02-01T13:04:10;18.52;;;2.85;;
28760;SDS011;15917;50.014;8.352;2023-02-01T13:06:44;15.73;;;2.78;;
28760;SDS011;15917;50.014;8.352;2023-02-01T13:09:19;19.73;;;2.45;;
28760;SDS011;15917;50.014;8.352;2023-02-01T13:11:51;10.95;;;3.63;;
28760;SDS011;15917;50.014;8.352;2023-02-01T13:17:23;15.55;;;2.45;;
28760;SDS011;15917;50.014;8.352;2023-02-01T13:20:05;14.77;;;2.33;;
28760;SDS011;15917;50.014;8.352;2023-02-01T13:22:39;15.10;;;2.22;;
28760;SDS011;15917;50.014;8.352;2023-02-01T13:25:29;14.52;;;2.33;;
28760;SDS011;15917;50.014;8.352;2023-02-01T13:28:21;22.63;;;3.28;;
28760;SDS011;15917;50.014;8.352;2023-02-01T13:31:13;15.43;;;2.45;;
28760;SDS011;15917;50.014;8.352;2023-02-01T13:36:39;21.00;;;2.85;;
28760;SDS011;15917;50.014;8.352;2023-02-01T13:42:16;14.70;;;2.40;;
28760;SDS011;15917;50.014;8.352;2023-02-01T13:44:58;19.00;;;3.60;;
28760;SDS011;15917;50.014;8.352;2023-02-01T13:47:33;11.95;;;2.50;;
28760;SDS011;15917;50.014;8.352;2023-02-01T13:52:51;14.85;;;3.15;;
28760;SDS011;15917;50.014;8.352;2023-02-01T13:57:51;12.60;;;2.92;;
28760;SDS011;15917;50.014;8.352;2023-02-01T14:00:47;12.05;;;2.38;;
28760;SDS011;15917;50.014;8.352;2023-02-01T14:03:20;22.50;;;3.13;;
28760;SDS011;15917;50.014;8.352;2023-02-01T14:08:23;11.52;;;2.08;;
28760;SDS011;15917;50.014;8.352;2023-02-01T14:11:01;18.67;;;3.80;;
28760;SDS011;15917;50.014;8.352;2023-02-01T14:24:00;13.18;;;1.98;;
28760;SDS011;15917;50.014;8.352;2023-02-01T14:26:51;19.02;;;2.03;;
28760;SDS011;15917;50.014;8.352;2023-02-01T14:29:21;16.42;;;2.88;;
28760;SDS011;15917;50.014;8.352;2023-02-01T14:32:04;19.00;;;2.67;;
28760;SDS011;15917;50.014;8.352;2023-02-01T14:42:54;12.15;;;3.65;;
28760;SDS011;15917;50.014;8.352;2023-02-01T14:47:45;8.73;;;2.05;;
28760;SDS011;15917;50.014;8.352;2023-02-01T15:01:13;22.20;;;2.20;;
28760;SDS011;15917;50.014;8.352;2023-02-01T15:03:47;13.50;;;2.47;;
28760;SDS011;15917;50.014;8.352;2023-02-01T15:06:22;16.25;;;2.60;;
28760;SDS011;15917;50.014;8.352;2023-02-01T15:08:56;18.40;;;4.80;;
28760;SDS011;15917;50.014;8.352;2023-02-01T15:14:32;8.77;;;1.85;;
28760;SDS011;15917;50.014;8.352;2023-02-01T15:16:59;19.58;;;2.10;;
28760;SDS011;15917;50.014;8.352;2023-02-01T15:19:25;14.75;;;2.78;;
28760;SDS011;15917;50.014;8.352;2023-02-01T15:21:53;17.55;;;2.50;;
28760;SDS011;15917;50.014;8.352;2023-02-01T15:24:25;16.00;;;2.70;;
28760;SDS011;15917;50.014;8.352;2023-02-01T15:26:55;13.52;;;2.33;;
28760;SDS011;15917;50.014;8.352;2023-02-01T15:29:28;11.77;;;2.88;;
28760;SDS011;15917;50.014;8.352;2023-02-01T15:31:57;15.18;;;1.92;;
28760;SDS011;15917;50.014;8.352;2023-02-01T15:34:33;17.15;;;2.38;;
28760;SDS011;15917;50.014;8.352;2023-02-01T15:37:13;10.85;;;2.22;;
28760;SDS011;15917;50.014;8.352;2023-02-01T15:42:35;9.38;;;2.28;;
28760;SDS011;15917;50.014;8.352;2023-02-01T15:45:21;13.82;;;2.10;;
28760;SDS011;15917;50.014;8.352;2023-02-01T15:47:52;18.67;;;2.80;;
28760;SDS011;15917;50.014;8.352;2023-02-01T15:50:20;18.00;;;3.15;;
28760;SDS011;15917;50.014;8.352;2023-02-01T15:52:48;13.90;;;2.35;;
28760;SDS011;15917;50.014;8.352;2023-02-01T15:55:31;14.48;;;2.17;;
28760;SDS011;15917;50.014;8.352;2023-02-01T15:58:17;15.73;;;2.33;;
28760;SDS011;15917;50.014;8.352;2023-02-01T16:05:59;17.35;;;2.55;;
28760;SDS011;15917;50.014;8.352;2023-02-01T16:08:28;21.90;;;2.38;;
28760;SDS011;15917;50.014;8.352;2023-02-01T16:13:34;15.98;;;2.17;;
28760;SDS011;15917;50.014;8.352;2023-02-01T16:16:00;13.27;;;2.25;;
28760;SDS011;15917;50.014;8.352;2023-02-01T16:18:26;14.68;;;1.92;;
28760;SDS011;15917;50.014;8.352;2023-02-01T16:20:52;16.17;;;2.08;;
28760;SDS011;15917;50.014;8.352;2023-02-01T16:23:17;12.60;;;2.00;;
28760;SDS011;15917;50.014;8.352;2023-02-01T16:25:45;14.43;;;2.80;;
28760;SDS011;15917;50.014;8.352;2023-02-01T16:28:11;17.35;;;1.98;;
28760;SDS011;15917;50.014;8.352;2023-02-01T16:30:36;14.07;;;2.75;;
28760;SDS011;15917;50.014;8.352;2023-02-01T16:33:02;8.95;;;1.70;;
28760;SDS011;15917;50.014;8.352;2023-02-01T16:35:31;17.90;;;2.55;;
28760;SDS011;15917;50.014;8.352;2023-02-01T16:38:08;18.83;;;3.00;;
28760;SDS011;15917;50.014;8.352;2023-02-01T16:40:37;16.50;;;2.45;;
28760;SDS011;15917;50.014;8.352;2023-02-01T16:43:08;13.60;;;1.98;;
28760;SDS011;15917;50.014;8.352;2023-02-01T16:45:44;11.88;;;1.90;;
28760;SDS011;15917;50.014;8.352;2023-02-01T16:48:21;17.63;;;2.55;;
28760;SDS011;15917;50.014;8.352;2023-02-01T16:51:00;15.10;;;2.50;;
28760;SDS011;15917;50.014;8.352;2023-02-01T16:53:29;8.90;;;2.08;;
28760;SDS011;15917;50.014;8.352;2023-02-01T16:55:56;15.07;;;2.78;;
28760;SDS011;15917;50.014;8.352;2023-02-01T16:58:25;13.70;;;2.00;;
28760;SDS011;15917;50.014;8.352;2023-02-01T17:00:51;15.35;;;3.13;;
28760;SDS011;15917;50.014;8.352;2023-02-01T17:03:18;6.97;;;1.90;;
28760;SDS011;15917;50.014;8.352;2023-02-01T17:08:13;12.90;;;1.88;;
28760;SDS011;15917;50.014;8.352;2023-02-01T17:10:47;5.90;;;2.30;;
28760;SDS011;15917;50.014;8.352;2023-02-01T17:13:13;16.30;;;2.00;;
28760;SDS011;15917;50.014;8.352;2023-02-01T17:15:40;14.65;;;2.78;;
28760;SDS011;15917;50.014;8.352;2023-02-01T17:18:23;12.20;;;2.90;;
28760;SDS011;15917;50.014;8.352;2023-02-01T17:20:50;12.45;;;3.58;;
28760;SDS011;15917;50.014;8.352;2023-02-01T17:23:17;17.00;;;3.15;;
28760;SDS011;15917;50.014;8.352;2023-02-01T17:25:44;17.65;;;2.67;;
28760;SDS011;15917;50.014;8.352;2023-02-01T17:28:12;19.13;;;2.55;;
28760;SDS011;15917;50.014;8.352;2023-02-01T17:30:37;12.48;;;2.00;;
28760;SDS011;15917;50.014;8.352;2023-02-01T17:33:04;19.48;;;2.42;;
28760;SDS011;15917;50.014;8.352;2023-02-01T17:35:49;16.95;;;2.10;;
28760;SDS011;15917;50.014;8.352;2023-02-01T17:38:15;13.52;;;2.70;;